sensor_id;sensor_type;location;lat;lon;timestamp;P1;durP1;ratioP1;P2;durP2;ratioP2
21175;SDS011;10746;50.178;8.186;2023-02-13T00:00:42;25.57;;;13.33;;
21175;SDS011;10746;50.178;8.186;2023-02-13T00:03:09;29.60;;;13.13;;
21175;SDS011;10746;50.178;8.186;2023-02-13T00:05:36;26.00;;;12.60;;
21175;SDS011;10746;50.178;8.186;2023-02-13T00:08:04;26.83;;;11.33;;
21175;SDS011;10746;50.178;8.186;2023-02-13T00:10:31;27.37;;;13.57;;
21175;SDS011;10746;50.178;8.186;2023-02-13T00:12:58;23.60;;;12.90;;
21175;SDS011;10746;50.178;8.186;2023-02-13T00:15:24;22.63;;;12.10;;
21175;SDS011;10746;50.178;8.186;2023-02-13T00:17:51;24.63;;;13.00;;
21175;SDS011;10746;50.178;8.186;2023-02-13T00:20:18;25.77;;;12.50;;
21175;SDS011;10746;50.178;8.186;2023-02-13T00:22:45;26.03;;;12.40;;
21175;SDS011;10746;50.178;8.186;2023-02-13T00:25:13;24.80;;;12.57;;
21175;SDS011;10746;50.178;8.186;2023-02-13T00:27:40;27.60;;;13.30;;
21175;SDS011;10746;50.178;8.186;2023-02-13T00:30:07;25.77;;;13.20;;
21175;SDS011;10746;50.178;8.186;2023-02-13T00:32:35;24.07;;;12.33;;
21175;SDS011;10746;50.178;8.186;2023-02-13T00:35:01;22.63;;;11.87;;
21175;SDS011;10746;50.178;8.186;2023-02-13T00:37:28;23.90;;;12.13;;
21175;SDS011;10746;50.178;8.186;2023-02-13T00:39:55;26.40;;;13.30;;
21175;SDS011;10746;50.178;8.186;2023-02-13T00:42:23;26.43;;;12.17;;
21175;SDS011;10746;50.178;8.186;2023-02-13T00:44:50;22.90;;;12.00;;
21175;SDS011;10746;50.178;8.186;2023-02-13T00:47:17;26.93;;;12.77;;
21175;SDS011;10746;50.178;8.186;2023-02-13T00:49:45;26.03;;;11.97;;
21175;SDS011;10746;50.178;8.186;2023-02-13T00:52:12;26.43;;;12.83;;
21175;SDS011;10746;50.178;8.186;2023-02-13T00:54:38;27.20;;;12.30;;
21175;SDS011;10746;50.178;8.186;2023-02-13T00:57:05;28.40;;;13.00;;
21175;SDS011;10746;50.178;8.186;2023-02-13T00:59:33;27.23;;;11.23;;
21175;SDS011;10746;50.178;8.186;2023-02-13T01:02:00;24.10;;;11.77;;
21175;SDS011;10746;50.178;8.186;2023-02-13T01:04:27;24.80;;;12.23;;
21175;SDS011;10746;50.178;8.186;2023-02-13T01:06:54;23.47;;;11.50;;
21175;SDS011;10746;50.178;8.186;2023-02-13T01:09:20;24.23;;;12.30;;
21175;SDS011;10746;50.178;8.186;2023-02-13T01:11:47;28.40;;;11.43;;
21175;SDS011;10746;50.178;8.186;2023-02-13T01:14:14;27.30;;;12.30;;
21175;SDS011;10746;50.178;8.186;2023-02-13T01:16:42;22.57;;;10.60;;
21175;SDS011;10746;50.178;8.186;2023-02-13T01:19:09;24.47;;;11.47;;
21175;SDS011;10746;50.178;8.186;2023-02-13T01:21:35;25.13;;;11.47;;
21175;SDS011;10746;50.178;8.186;2023-02-13T01:24:02;25.27;;;11.87;;
21175;SDS011;10746;50.178;8.186;2023-02-13T01:26:30;23.80;;;10.83;;
21175;SDS011;10746;50.178;8.186;2023-02-13T01:28:57;23.40;;;11.23;;
21175;SDS011;10746;50.178;8.186;2023-02-13T01:31:24;21.70;;;10.37;;
21175;SDS011;10746;50.178;8.186;2023-02-13T01:33:55;26.90;;;11.93;;
21175;SDS011;10746;50.178;8.186;2023-02-13T01:36:23;22.80;;;11.77;;
21175;SDS011;10746;50.178;8.186;2023-02-13T01:38:51;26.73;;;11.80;;
21175;SDS011;10746;50.178;8.186;2023-02-13T01:41:19;28.17;;;12.80;;
21175;SDS011;10746;50.178;8.186;2023-02-13T01:43:49;28.80;;;13.30;;
21175;SDS011;10746;50.178;8.186;2023-02-13T01:46:20;26.27;;;11.97;;
21175;SDS011;10746;50.178;8.186;2023-02-13T01:48:50;30.03;;;11.83;;
21175;SDS011;10746;50.178;8.186;2023-02-13T01:51:21;25.43;;;11.10;;
21175;SDS011;10746;50.178;8.186;2023-02-13T01:53:52;26.20;;;11.83;;
21175;SDS011;10746;50.178;8.186;2023-02-13T01:56:23;27.23;;;12.53;;
21175;SDS011;10746;50.178;8.186;2023-02-13T01:58:53;25.80;;;11.90;;
21175;SDS011;10746;50.178;8.186;2023-02-13T02:01:23;26.33;;;12.13;;
21175;SDS011;10746;50.178;8.186;2023-02-13T02:03:52;26.27;;;12.00;;
21175;SDS011;10746;50.178;8.186;2023-02-13T02:06:26;25.73;;;11.37;;
21175;SDS011;10746;50.178;8.186;2023-02-13T02:08:54;29.07;;;13.00;;
21175;SDS011;10746;50.178;8.186;2023-02-13T02:11:27;27.80;;;12.47;;
21175;SDS011;10746;50.178;8.186;2023-02-13T02:14:04;31.27;;;13.67;;
21175;SDS011;10746;50.178;8.186;2023-02-13T02:16:31;29.37;;;13.27;;
21175;SDS011;10746;50.178;8.186;2023-02-13T02:19:00;29.23;;;13.13;;
21175;SDS011;10746;50.178;8.186;2023-02-13T02:30:36;29.73;;;12.00;;
21175;SDS011;10746;50.178;8.186;2023-02-13T02:33:29;33.27;;;13.93;;
21175;SDS011;10746;50.178;8.186;2023-02-13T02:36:14;31.90;;;12.97;;
21175;SDS011;10746;50.178;8.186;2023-02-13T02:39:00;33.00;;;12.67;;
21175;SDS011;10746;50.178;8.186;2023-02-13T02:41:37;31.23;;;12.97;;
21175;SDS011;10746;50.178;8.186;2023-02-13T02:44:19;33.03;;;13.27;;
21175;SDS011;10746;50.178;8.186;2023-02-13T02:47:06;33.13;;;13.30;;
21175;SDS011;10746;50.178;8.186;2023-02-13T02:49:58;31.43;;;12.73;;
21175;SDS011;10746;50.178;8.186;2023-02-13T02:52:39;35.63;;;14.10;;
21175;SDS011;10746;50.178;8.186;2023-02-13T02:55:14;30.77;;;12.90;;
21175;SDS011;10746;50.178;8.186;2023-02-13T02:57:48;34.07;;;12.93;;
21175;SDS011;10746;50.178;8.186;2023-02-13T03:00:38;31.47;;;12.60;;
21175;SDS011;10746;50.178;8.186;2023-02-13T03:03:33;30.97;;;12.27;;
21175;SDS011;10746;50.178;8.186;2023-02-13T03:06:21;31.40;;;12.67;;
21175;SDS011;10746;50.178;8.186;2023-02-13T03:08:51;27.67;;;12.73;;
21175;SDS011;10746;50.178;8.186;2023-02-13T03:11:39;26.67;;;12.13;;
21175;SDS011;10746;50.178;8.186;2023-02-13T03:14:26;33.97;;;13.07;;
21175;SDS011;10746;50.178;8.186;2023-02-13T03:16:54;29.67;;;12.13;;
21175;SDS011;10746;50.178;8.186;2023-02-13T03:19:46;28.53;;;12.80;;
21175;SDS011;10746;50.178;8.186;2023-02-13T03:22:43;32.13;;;13.17;;
21175;SDS011;10746;50.178;8.186;2023-02-13T03:25:17;26.87;;;11.80;;
21175;SDS011;10746;50.178;8.186;2023-02-13T03:28:00;32.10;;;13.63;;
21175;SDS011;10746;50.178;8.186;2023-02-13T03:30:55;27.33;;;12.73;;
21175;SDS011;10746;50.178;8.186;2023-02-13T03:33:29;31.70;;;12.80;;
21175;SDS011;10746;50.178;8.186;2023-02-13T03:36:12;31.60;;;13.37;;
21175;SDS011;10746;50.178;8.186;2023-02-13T03:39:05;30.27;;;13.27;;
21175;SDS011;10746;50.178;8.186;2023-02-13T03:41:36;30.90;;;13.27;;
21175;SDS011;10746;50.178;8.186;2023-02-13T03:44:08;26.90;;;12.63;;
21175;SDS011;10746;50.178;8.186;2023-02-13T03:46:39;27.77;;;12.30;;
21175;SDS011;10746;50.178;8.186;2023-02-13T03:49:10;31.30;;;13.30;;
21175;SDS011;10746;50.178;8.186;2023-02-13T03:52:01;28.17;;;11.97;;
21175;SDS011;10746;50.178;8.186;2023-02-13T03:54:33;31.27;;;12.73;;
21175;SDS011;10746;50.178;8.186;2023-02-13T03:57:25;30.00;;;13.20;;
21175;SDS011;10746;50.178;8.186;2023-02-13T04:00:12;31.13;;;12.70;;
21175;SDS011;10746;50.178;8.186;2023-02-13T04:02:43;31.33;;;12.30;;
21175;SDS011;10746;50.178;8.186;2023-02-13T04:05:17;25.03;;;11.80;;
21175;SDS011;10746;50.178;8.186;2023-02-13T04:07:48;28.00;;;11.90;;
21175;SDS011;10746;50.178;8.186;2023-02-13T04:12:47;37.17;;;13.60;;
21175;SDS011;10746;50.178;8.186;2023-02-13T04:15:18;28.17;;;12.83;;
21175;SDS011;10746;50.178;8.186;2023-02-13T04:17:52;33.93;;;14.40;;
21175;SDS011;10746;50.178;8.186;2023-02-13T04:20:27;30.03;;;10.60;;
21175;SDS011;10746;50.178;8.186;2023-02-13T04:22:56;35.80;;;15.70;;
21175;SDS011;10746;50.178;8.186;2023-02-13T04:25:24;32.80;;;13.77;;
21175;SDS011;10746;50.178;8.186;2023-02-13T04:27:50;30.97;;;13.70;;
21175;SDS011;10746;50.178;8.186;2023-02-13T04:30:17;31.87;;;13.93;;
21175;SDS011;10746;50.178;8.186;2023-02-13T04:32:44;28.10;;;12.77;;
21175;SDS011;10746;50.178;8.186;2023-02-13T04:35:12;26.83;;;13.00;;
21175;SDS011;10746;50.178;8.186;2023-02-13T04:37:39;26.90;;;12.33;;
21175;SDS011;10746;50.178;8.186;2023-02-13T04:40:06;24.83;;;11.77;;
21175;SDS011;10746;50.178;8.186;2023-02-13T04:42:35;31.13;;;12.47;;
21175;SDS011;10746;50.178;8.186;2023-02-13T04:45:02;27.97;;;12.83;;
21175;SDS011;10746;50.178;8.186;2023-02-13T04:47:29;30.07;;;11.53;;
21175;SDS011;10746;50.178;8.186;2023-02-13T04:49:56;29.00;;;12.03;;
21175;SDS011;10746;50.178;8.186;2023-02-13T04:52:22;27.93;;;12.00;;
21175;SDS011;10746;50.178;8.186;2023-02-13T04:54:49;25.40;;;11.47;;
21175;SDS011;10746;50.178;8.186;2023-02-13T04:57:16;26.47;;;12.07;;
21175;SDS011;10746;50.178;8.186;2023-02-13T04:59:44;27.40;;;11.63;;
21175;SDS011;10746;50.178;8.186;2023-02-13T05:02:11;27.73;;;10.73;;
21175;SDS011;10746;50.178;8.186;2023-02-13T05:04:38;29.77;;;12.60;;
21175;SDS011;10746;50.178;8.186;2023-02-13T05:07:05;25.43;;;10.77;;
21175;SDS011;10746;50.178;8.186;2023-02-13T05:09:31;23.50;;;10.93;;
21175;SDS011;10746;50.178;8.186;2023-02-13T05:11:58;24.83;;;11.50;;
21175;SDS011;10746;50.178;8.186;2023-02-13T05:14:25;28.63;;;11.83;;
21175;SDS011;10746;50.178;8.186;2023-02-13T05:16:54;26.37;;;11.00;;
21175;SDS011;10746;50.178;8.186;2023-02-13T05:19:20;28.50;;;11.20;;
21175;SDS011;10746;50.178;8.186;2023-02-13T05:21:47;30.40;;;11.93;;
21175;SDS011;10746;50.178;8.186;2023-02-13T05:24:31;27.60;;;10.80;;
21175;SDS011;10746;50.178;8.186;2023-02-13T05:26:58;29.90;;;11.40;;
21175;SDS011;10746;50.178;8.186;2023-02-13T05:29:25;26.77;;;11.60;;
21175;SDS011;10746;50.178;8.186;2023-02-13T05:31:52;28.30;;;11.63;;
21175;SDS011;10746;50.178;8.186;2023-02-13T05:34:23;29.00;;;11.27;;
21175;SDS011;10746;50.178;8.186;2023-02-13T05:36:50;31.60;;;12.30;;
21175;SDS011;10746;50.178;8.186;2023-02-13T05:39:17;31.23;;;12.03;;
21175;SDS011;10746;50.178;8.186;2023-02-13T05:41:45;26.80;;;11.63;;
21175;SDS011;10746;50.178;8.186;2023-02-13T05:44:13;30.63;;;12.07;;
21175;SDS011;10746;50.178;8.186;2023-02-13T05:46:40;37.00;;;12.10;;
21175;SDS011;10746;50.178;8.186;2023-02-13T05:49:10;29.40;;;11.60;;
21175;SDS011;10746;50.178;8.186;2023-02-13T05:51:38;31.17;;;11.37;;
21175;SDS011;10746;50.178;8.186;2023-02-13T05:54:05;30.73;;;11.90;;
21175;SDS011;10746;50.178;8.186;2023-02-13T05:56:31;30.37;;;12.07;;
21175;SDS011;10746;50.178;8.186;2023-02-13T05:58:58;27.00;;;12.57;;
21175;SDS011;10746;50.178;8.186;2023-02-13T06:01:25;28.93;;;12.70;;
21175;SDS011;10746;50.178;8.186;2023-02-13T06:03:52;31.10;;;12.93;;
21175;SDS011;10746;50.178;8.186;2023-02-13T06:06:20;36.30;;;13.17;;
21175;SDS011;10746;50.178;8.186;2023-02-13T06:08:47;29.87;;;12.73;;
21175;SDS011;10746;50.178;8.186;2023-02-13T06:11:15;33.50;;;12.73;;
21175;SDS011;10746;50.178;8.186;2023-02-13T06:13:42;33.50;;;14.07;;
21175;SDS011;10746;50.178;8.186;2023-02-13T06:16:09;35.53;;;14.70;;
21175;SDS011;10746;50.178;8.186;2023-02-13T06:18:37;37.23;;;13.50;;
21175;SDS011;10746;50.178;8.186;2023-02-13T06:21:05;32.73;;;13.57;;
21175;SDS011;10746;50.178;8.186;2023-02-13T06:23:34;41.13;;;14.20;;
21175;SDS011;10746;50.178;8.186;2023-02-13T06:26:01;33.60;;;13.57;;
21175;SDS011;10746;50.178;8.186;2023-02-13T06:28:28;35.53;;;13.13;;
21175;SDS011;10746;50.178;8.186;2023-02-13T06:30:55;30.33;;;13.60;;
21175;SDS011;10746;50.178;8.186;2023-02-13T06:33:22;39.27;;;14.30;;
21175;SDS011;10746;50.178;8.186;2023-02-13T06:35:49;35.57;;;14.47;;
21175;SDS011;10746;50.178;8.186;2023-02-13T06:38:16;46.30;;;15.23;;
21175;SDS011;10746;50.178;8.186;2023-02-13T06:40:45;34.67;;;13.20;;
21175;SDS011;10746;50.178;8.186;2023-02-13T06:43:12;40.03;;;14.60;;
21175;SDS011;10746;50.178;8.186;2023-02-13T06:45:39;34.50;;;13.53;;
21175;SDS011;10746;50.178;8.186;2023-02-13T06:48:06;34.60;;;13.03;;
21175;SDS011;10746;50.178;8.186;2023-02-13T06:50:33;29.87;;;12.70;;
21175;SDS011;10746;50.178;8.186;2023-02-13T06:52:59;34.83;;;13.80;;
21175;SDS011;10746;50.178;8.186;2023-02-13T06:55:26;34.43;;;14.23;;
21175;SDS011;10746;50.178;8.186;2023-02-13T06:57:55;38.80;;;14.67;;
21175;SDS011;10746;50.178;8.186;2023-02-13T07:00:21;40.73;;;14.83;;
21175;SDS011;10746;50.178;8.186;2023-02-13T07:02:48;36.10;;;13.70;;
21175;SDS011;10746;50.178;8.186;2023-02-13T07:05:16;39.87;;;14.73;;
21175;SDS011;10746;50.178;8.186;2023-02-13T07:07:43;40.33;;;14.60;;
21175;SDS011;10746;50.178;8.186;2023-02-13T07:10:10;37.83;;;14.30;;
21175;SDS011;10746;50.178;8.186;2023-02-13T07:12:38;36.97;;;13.73;;
21175;SDS011;10746;50.178;8.186;2023-02-13T07:15:07;47.53;;;15.03;;
21175;SDS011;10746;50.178;8.186;2023-02-13T07:17:34;39.53;;;14.73;;
21175;SDS011;10746;50.178;8.186;2023-02-13T07:20:01;39.73;;;14.67;;
21175;SDS011;10746;50.178;8.186;2023-02-13T07:22:29;44.20;;;15.97;;
21175;SDS011;10746;50.178;8.186;2023-02-13T07:24:57;40.53;;;15.00;;
21175;SDS011;10746;50.178;8.186;2023-02-13T07:27:24;40.70;;;15.23;;
21175;SDS011;10746;50.178;8.186;2023-02-13T07:29:53;42.97;;;15.93;;
21175;SDS011;10746;50.178;8.186;2023-02-13T07:32:21;37.83;;;15.03;;
21175;SDS011;10746;50.178;8.186;2023-02-13T07:34:48;40.30;;;14.30;;
21175;SDS011;10746;50.178;8.186;2023-02-13T07:37:15;40.13;;;14.37;;
21175;SDS011;10746;50.178;8.186;2023-02-13T07:39:42;45.37;;;18.37;;
21175;SDS011;10746;50.178;8.186;2023-02-13T07:42:08;48.37;;;23.90;;
21175;SDS011;10746;50.178;8.186;2023-02-13T07:44:35;39.43;;;16.50;;
21175;SDS011;10746;50.178;8.186;2023-02-13T07:47:02;35.47;;;14.40;;
21175;SDS011;10746;50.178;8.186;2023-02-13T07:49:30;32.53;;;14.20;;
21175;SDS011;10746;50.178;8.186;2023-02-13T07:51:57;28.43;;;13.73;;
21175;SDS011;10746;50.178;8.186;2023-02-13T07:54:23;27.43;;;12.20;;
21175;SDS011;10746;50.178;8.186;2023-02-13T07:56:50;21.93;;;11.97;;
21175;SDS011;10746;50.178;8.186;2023-02-13T07:59:17;31.67;;;15.27;;
21175;SDS011;10746;50.178;8.186;2023-02-13T08:01:43;32.13;;;17.47;;
21175;SDS011;10746;50.178;8.186;2023-02-13T08:04:10;25.80;;;13.27;;
21175;SDS011;10746;50.178;8.186;2023-02-13T08:06:39;32.77;;;15.60;;
21175;SDS011;10746;50.178;8.186;2023-02-13T08:09:06;19.33;;;10.43;;
21175;SDS011;10746;50.178;8.186;2023-02-13T08:11:57;19.23;;;10.43;;
21175;SDS011;10746;50.178;8.186;2023-02-13T08:14:25;20.70;;;11.20;;
21175;SDS011;10746;50.178;8.186;2023-02-13T08:16:52;19.23;;;10.27;;
21175;SDS011;10746;50.178;8.186;2023-02-13T08:19:19;18.97;;;9.73;;
21175;SDS011;10746;50.178;8.186;2023-02-13T08:21:48;16.53;;;9.37;;
21175;SDS011;10746;50.178;8.186;2023-02-13T08:24:14;16.37;;;9.13;;
21175;SDS011;10746;50.178;8.186;2023-02-13T08:26:41;16.80;;;8.90;;
21175;SDS011;10746;50.178;8.186;2023-02-13T08:29:08;16.53;;;9.17;;
21175;SDS011;10746;50.178;8.186;2023-02-13T08:31:35;17.70;;;9.33;;
21175;SDS011;10746;50.178;8.186;2023-02-13T08:34:02;15.10;;;8.83;;
21175;SDS011;10746;50.178;8.186;2023-02-13T08:36:29;17.80;;;8.97;;
21175;SDS011;10746;50.178;8.186;2023-02-13T08:38:58;57.43;;;9.57;;
21175;SDS011;10746;50.178;8.186;2023-02-13T08:41:24;15.53;;;8.67;;
21175;SDS011;10746;50.178;8.186;2023-02-13T08:43:52;16.77;;;10.13;;
21175;SDS011;10746;50.178;8.186;2023-02-13T08:46:19;14.93;;;8.10;;
21175;SDS011;10746;50.178;8.186;2023-02-13T08:48:46;14.43;;;8.00;;
21175;SDS011;10746;50.178;8.186;2023-02-13T08:51:13;15.70;;;8.13;;
21175;SDS011;10746;50.178;8.186;2023-02-13T08:53:40;12.63;;;7.30;;
21175;SDS011;10746;50.178;8.186;2023-02-13T08:56:09;10.23;;;7.03;;
21175;SDS011;10746;50.178;8.186;2023-02-13T08:58:36;13.33;;;7.27;;
21175;SDS011;10746;50.178;8.186;2023-02-13T09:01:03;11.70;;;6.22;;
21175;SDS011;10746;50.178;8.186;2023-02-13T09:03:31;12.20;;;6.10;;
21175;SDS011;10746;50.178;8.186;2023-02-13T09:05:58;10.87;;;6.20;;
21175;SDS011;10746;50.178;8.186;2023-02-13T09:08:25;8.90;;;6.03;;
21175;SDS011;10746;50.178;8.186;2023-02-13T09:10:56;11.97;;;5.57;;
21175;SDS011;10746;50.178;8.186;2023-02-13T09:13:25;10.00;;;6.07;;
21175;SDS011;10746;50.178;8.186;2023-02-13T09:15:52;8.40;;;5.53;;
21175;SDS011;10746;50.178;8.186;2023-02-13T09:18:18;8.13;;;5.57;;
21175;SDS011;10746;50.178;8.186;2023-02-13T09:20:45;9.02;;;5.07;;
21175;SDS011;10746;50.178;8.186;2023-02-13T09:23:12;9.00;;;5.63;;
21175;SDS011;10746;50.178;8.186;2023-02-13T09:25:39;7.77;;;5.40;;
21175;SDS011;10746;50.178;8.186;2023-02-13T09:28:05;8.88;;;5.43;;
21175;SDS011;10746;50.178;8.186;2023-02-13T09:30:33;9.27;;;6.00;;
21175;SDS011;10746;50.178;8.186;2023-02-13T09:33:00;8.67;;;5.57;;
21175;SDS011;10746;50.178;8.186;2023-02-13T09:35:27;11.40;;;6.23;;
21175;SDS011;10746;50.178;8.186;2023-02-13T09:37:54;8.05;;;5.47;;
21175;SDS011;10746;50.178;8.186;2023-02-13T09:40:22;7.68;;;5.15;;
21175;SDS011;10746;50.178;8.186;2023-02-13T09:42:55;8.55;;;5.95;;
21175;SDS011;10746;50.178;8.186;2023-02-13T09:45:31;9.10;;;5.82;;
21175;SDS011;10746;50.178;8.186;2023-02-13T09:48:00;9.70;;;5.95;;
21175;SDS011;10746;50.178;8.186;2023-02-13T09:50:28;9.63;;;6.07;;
21175;SDS011;10746;50.178;8.186;2023-02-13T09:52:59;7.30;;;5.20;;
21175;SDS011;10746;50.178;8.186;2023-02-13T09:55:30;9.80;;;5.68;;
21175;SDS011;10746;50.178;8.186;2023-02-13T09:58:04;7.80;;;5.50;;
21175;SDS011;10746;50.178;8.186;2023-02-13T10:00:36;7.68;;;5.15;;
21175;SDS011;10746;50.178;8.186;2023-02-13T10:03:10;8.57;;;5.57;;
21175;SDS011;10746;50.178;8.186;2023-02-13T10:05:51;9.50;;;5.78;;
21175;SDS011;10746;50.178;8.186;2023-02-13T10:08:28;9.07;;;5.45;;
21175;SDS011;10746;50.178;8.186;2023-02-13T10:11:19;8.52;;;5.18;;
21175;SDS011;10746;50.178;8.186;2023-02-13T10:14:15;6.03;;;4.53;;
21175;SDS011;10746;50.178;8.186;2023-02-13T10:16:44;8.93;;;4.47;;
21175;SDS011;10746;50.178;8.186;2023-02-13T10:19:15;6.60;;;4.38;;
21175;SDS011;10746;50.178;8.186;2023-02-13T10:21:53;9.48;;;4.90;;
21175;SDS011;10746;50.178;8.186;2023-02-13T10:24:26;9.98;;;5.47;;
21175;SDS011;10746;50.178;8.186;2023-02-13T10:26:59;9.07;;;5.15;;
21175;SDS011;10746;50.178;8.186;2023-02-13T10:29:35;7.82;;;5.53;;
21175;SDS011;10746;50.178;8.186;2023-02-13T10:32:24;7.38;;;4.88;;
21175;SDS011;10746;50.178;8.186;2023-02-13T10:34:57;9.52;;;4.85;;
21175;SDS011;10746;50.178;8.186;2023-02-13T10:37:28;7.72;;;5.40;;
21175;SDS011;10746;50.178;8.186;2023-02-13T10:39:55;6.70;;;4.50;;
21175;SDS011;10746;50.178;8.186;2023-02-13T10:42:22;6.53;;;4.28;;
21175;SDS011;10746;50.178;8.186;2023-02-13T10:45:00;8.20;;;5.07;;
21175;SDS011;10746;50.178;8.186;2023-02-13T10:47:40;6.82;;;4.57;;
21175;SDS011;10746;50.178;8.186;2023-02-13T10:50:28;6.40;;;4.28;;
21175;SDS011;10746;50.178;8.186;2023-02-13T10:53:04;10.07;;;4.82;;
21175;SDS011;10746;50.178;8.186;2023-02-13T10:58:32;7.18;;;4.82;;
21175;SDS011;10746;50.178;8.186;2023-02-13T11:01:12;8.48;;;4.93;;
21175;SDS011;10746;50.178;8.186;2023-02-13T11:03:43;8.45;;;4.80;;
21175;SDS011;10746;50.178;8.186;2023-02-13T11:06:13;6.93;;;4.60;;
21175;SDS011;10746;50.178;8.186;2023-02-13T11:08:43;8.48;;;4.70;;
21175;SDS011;10746;50.178;8.186;2023-02-13T11:11:28;7.45;;;4.32;;
21175;SDS011;10746;50.178;8.186;2023-02-13T11:14:06;7.57;;;4.60;;
21175;SDS011;10746;50.178;8.186;2023-02-13T11:16:38;6.15;;;3.92;;
21175;SDS011;10746;50.178;8.186;2023-02-13T11:19:12;6.70;;;4.20;;
21175;SDS011;10746;50.178;8.186;2023-02-13T11:21:44;5.65;;;3.78;;
21175;SDS011;10746;50.178;8.186;2023-02-13T11:24:19;6.70;;;4.25;;
21175;SDS011;10746;50.178;8.186;2023-02-13T11:26:52;6.22;;;3.55;;
21175;SDS011;10746;50.178;8.186;2023-02-13T11:29:23;6.45;;;4.05;;
21175;SDS011;10746;50.178;8.186;2023-02-13T11:32:02;6.93;;;4.10;;
21175;SDS011;10746;50.178;8.186;2023-02-13T11:34:32;6.90;;;3.80;;
21175;SDS011;10746;50.178;8.186;2023-02-13T11:37:20;5.68;;;3.88;;
21175;SDS011;10746;50.178;8.186;2023-02-13T11:39:49;8.52;;;3.97;;
21175;SDS011;10746;50.178;8.186;2023-02-13T11:42:23;5.55;;;3.47;;
21175;SDS011;10746;50.178;8.186;2023-02-13T11:44:53;6.30;;;3.78;;
21175;SDS011;10746;50.178;8.186;2023-02-13T11:47:30;4.40;;;3.53;;
21175;SDS011;10746;50.178;8.186;2023-02-13T11:49:59;6.05;;;3.40;;
21175;SDS011;10746;50.178;8.186;2023-02-13T11:52:28;4.63;;;3.53;;
21175;SDS011;10746;50.178;8.186;2023-02-13T11:54:58;4.38;;;3.25;;
21175;SDS011;10746;50.178;8.186;2023-02-13T11:57:28;4.65;;;3.20;;
21175;SDS011;10746;50.178;8.186;2023-02-13T11:59:56;6.00;;;3.85;;
21175;SDS011;10746;50.178;8.186;2023-02-13T12:02:24;3.70;;;3.33;;
21175;SDS011;10746;50.178;8.186;2023-02-13T12:04:53;4.43;;;3.30;;
21175;SDS011;10746;50.178;8.186;2023-02-13T12:07:21;4.82;;;3.50;;
21175;SDS011;10746;50.178;8.186;2023-02-13T12:09:54;3.75;;;3.42;;
21175;SDS011;10746;50.178;8.186;2023-02-13T12:12:27;4.30;;;3.38;;
21175;SDS011;10746;50.178;8.186;2023-02-13T12:14:59;5.07;;;3.40;;
21175;SDS011;10746;50.178;8.186;2023-02-13T12:17:31;5.10;;;3.65;;
21175;SDS011;10746;50.178;8.186;2023-02-13T12:19:59;4.25;;;3.35;;
21175;SDS011;10746;50.178;8.186;2023-02-13T12:22:38;4.22;;;3.28;;
21175;SDS011;10746;50.178;8.186;2023-02-13T12:25:21;4.63;;;3.13;;
21175;SDS011;10746;50.178;8.186;2023-02-13T12:30:53;3.55;;;2.90;;
21175;SDS011;10746;50.178;8.186;2023-02-13T12:33:43;3.55;;;3.25;;
21175;SDS011;10746;50.178;8.186;2023-02-13T12:36:39;3.70;;;3.03;;
21175;SDS011;10746;50.178;8.186;2023-02-13T12:39:17;5.93;;;3.78;;
21175;SDS011;10746;50.178;8.186;2023-02-13T12:41:54;4.55;;;3.30;;
21175;SDS011;10746;50.178;8.186;2023-02-13T12:47:22;3.70;;;2.83;;
21175;SDS011;10746;50.178;8.186;2023-02-13T12:49:59;12.80;;;3.25;;
21175;SDS011;10746;50.178;8.186;2023-02-13T12:52:41;3.38;;;2.60;;
21175;SDS011;10746;50.178;8.186;2023-02-13T12:55:18;4.90;;;3.00;;
21175;SDS011;10746;50.178;8.186;2023-02-13T12:58:01;2.78;;;2.58;;
21175;SDS011;10746;50.178;8.186;2023-02-13T13:00:43;4.22;;;3.00;;
21175;SDS011;10746;50.178;8.186;2023-02-13T13:03:27;4.65;;;2.30;;
21175;SDS011;10746;50.178;8.186;2023-02-13T13:06:17;2.53;;;2.33;;
21175;SDS011;10746;50.178;8.186;2023-02-13T13:09:05;5.78;;;2.60;;
21175;SDS011;10746;50.178;8.186;2023-02-13T13:11:55;2.65;;;2.40;;
21175;SDS011;10746;50.178;8.186;2023-02-13T13:14:38;3.05;;;2.20;;
21175;SDS011;10746;50.178;8.186;2023-02-13T13:17:16;4.07;;;2.72;;
21175;SDS011;10746;50.178;8.186;2023-02-13T13:19:55;3.50;;;2.65;;
21175;SDS011;10746;50.178;8.186;2023-02-13T13:22:30;3.35;;;2.08;;
21175;SDS011;10746;50.178;8.186;2023-02-13T13:25:07;2.80;;;2.20;;
21175;SDS011;10746;50.178;8.186;2023-02-13T13:27:44;3.30;;;2.40;;
21175;SDS011;10746;50.178;8.186;2023-02-13T13:30:17;2.75;;;2.38;;
21175;SDS011;10746;50.178;8.186;2023-02-13T13:32:47;2.50;;;2.30;;
21175;SDS011;10746;50.178;8.186;2023-02-13T13:35:19;3.15;;;2.70;;
21175;SDS011;10746;50.178;8.186;2023-02-13T13:37:47;2.88;;;2.30;;
21175;SDS011;10746;50.178;8.186;2023-02-13T13:40:28;3.03;;;2.42;;
21175;SDS011;10746;50.178;8.186;2023-02-13T13:43:12;2.65;;;2.45;;
21175;SDS011;10746;50.178;8.186;2023-02-13T13:45:46;2.72;;;2.40;;
21175;SDS011;10746;50.178;8.186;2023-02-13T13:51:08;1.70;;;1.60;;
21175;SDS011;10746;50.178;8.186;2023-02-13T13:53:42;4.38;;;2.10;;
21175;SDS011;10746;50.178;8.186;2023-02-13T13:57:09;4.65;;;2.65;;
21175;SDS011;10746;50.178;8.186;2023-02-13T14:02:43;5.03;;;2.55;;
21175;SDS011;10746;50.178;8.186;2023-02-13T14:07:57;2.92;;;2.50;;
21175;SDS011;10746;50.178;8.186;2023-02-13T14:13:28;2.85;;;2.65;;
21175;SDS011;10746;50.178;8.186;2023-02-13T14:15:56;4.13;;;2.65;;
21175;SDS011;10746;50.178;8.186;2023-02-13T14:18:24;2.90;;;2.70;;
21175;SDS011;10746;50.178;8.186;2023-02-13T14:20:52;2.60;;;2.40;;
21175;SDS011;10746;50.178;8.186;2023-02-13T14:23:29;4.55;;;3.10;;
21175;SDS011;10746;50.178;8.186;2023-02-13T14:31:58;4.75;;;3.17;;
21175;SDS011;10746;50.178;8.186;2023-02-13T14:34:31;3.55;;;2.80;;
21175;SDS011;10746;50.178;8.186;2023-02-13T14:40:08;4.60;;;3.47;;
21175;SDS011;10746;50.178;8.186;2023-02-13T14:43:12;5.38;;;3.10;;
21175;SDS011;10746;50.178;8.186;2023-02-13T14:45:46;3.78;;;2.80;;
21175;SDS011;10746;50.178;8.186;2023-02-13T14:48:16;3.33;;;2.75;;
21175;SDS011;10746;50.178;8.186;2023-02-13T14:50:47;4.22;;;2.85;;
21175;SDS011;10746;50.178;8.186;2023-02-13T14:53:21;5.20;;;2.78;;
21175;SDS011;10746;50.178;8.186;2023-02-13T14:55:54;3.88;;;3.00;;
21175;SDS011;10746;50.178;8.186;2023-02-13T14:58:24;5.05;;;3.47;;
21175;SDS011;10746;50.178;8.186;2023-02-13T15:00:54;7.07;;;3.60;;
21175;SDS011;10746;50.178;8.186;2023-02-13T15:03:26;6.32;;;3.95;;
21175;SDS011;10746;50.178;8.186;2023-02-13T15:05:58;8.07;;;4.43;;
21175;SDS011;10746;50.178;8.186;2023-02-13T15:08:28;6.73;;;3.70;;
21175;SDS011;10746;50.178;8.186;2023-02-13T15:10:59;6.13;;;3.43;;
21175;SDS011;10746;50.178;8.186;2023-02-13T15:13:31;6.20;;;3.63;;
21175;SDS011;10746;50.178;8.186;2023-02-13T15:15:59;7.53;;;3.80;;
21175;SDS011;10746;50.178;8.186;2023-02-13T15:18:29;4.85;;;3.28;;
21175;SDS011;10746;50.178;8.186;2023-02-13T15:21:01;6.07;;;3.80;;
21175;SDS011;10746;50.178;8.186;2023-02-13T15:23:28;4.57;;;3.43;;
21175;SDS011;10746;50.178;8.186;2023-02-13T15:25:57;6.32;;;3.63;;
21175;SDS011;10746;50.178;8.186;2023-02-13T15:28:25;5.83;;;3.57;;
21175;SDS011;10746;50.178;8.186;2023-02-13T15:30:53;5.25;;;3.53;;
21175;SDS011;10746;50.178;8.186;2023-02-13T15:33:22;10.07;;;4.15;;
21175;SDS011;10746;50.178;8.186;2023-02-13T15:35:54;6.88;;;4.53;;
21175;SDS011;10746;50.178;8.186;2023-02-13T15:38:28;5.77;;;4.47;;
21175;SDS011;10746;50.178;8.186;2023-02-13T15:40:57;5.37;;;3.70;;